Time;durP1;ratioP1;P1;durP2;ratioP2;P2;SDS_P1;SDS_P2;PMS_P1;PMS_P2;Temp;Humidity;BMP_temperature;BMP_pressure;BME280_temperature;BME280_humidity;BME280_pressure;Samples;Min_cycle;Max_cycle;Signal;HPM_P1;HPM_P2
2023/09/16 00:01:09;;;;;;;5.18;4.78;;;22.90;93.30;;;;;;4948218;28;20221;-72
2023/09/16 00:03:35;;;;;;;5.30;4.90;;;22.80;93.20;;;;;;4946956;28;20240;-72
2023/09/16 00:06:02;;;;;;;5.57;5.07;;;22.80;93.20;;;;;;4959175;28;20201;-72
2023/09/16 00:08:27;;;;;;;4.63;4.22;;;22.90;93.30;;;;;;4958864;28;20272;-72
2023/09/16 00:10:53;;;;;;;5.65;5.15;;;22.80;93.20;;;;;;4943298;28;20284;-72
2023/09/16 00:13:19;;;;;;;5.20;4.80;;;22.80;93.20;;;;;;4962114;28;20197;-72
2023/09/16 00:15:48;;;;;;;5.05;4.65;;;22.80;93.20;;;;;;4944963;28;20214;-72
2023/09/16 00:18:19;;;;;;;5.53;5.13;;;22.80;93.20;;;;;;4962413;28;20212;-72
2023/09/16 00:20:48;;;;;;;4.93;4.53;;;22.80;93.20;;;;;;4958844;28;20237;-72
2023/09/16 00:23:15;;;;;;;4.90;4.50;;;22.80;93.30;;;;;;4945259;28;20260;-72
2023/09/16 00:25:42;;;;;;;5.18;4.75;;;22.80;93.30;;;;;;4949229;28;20216;-72
2023/09/16 00:28:08;;;;;;;5.70;5.15;;;22.80;93.30;;;;;;4976032;28;20190;-72
2023/09/16 00:30:42;;;;;;;4.80;4.40;;;22.80;93.30;;;;;;4954046;28;20263;-72
2023/09/16 00:33:08;;;;;;;5.35;4.95;;;22.80;93.30;;;;;;4958582;28;20197;-73
2023/09/16 00:35:34;;;;;;;4.95;4.57;;;22.80;93.30;;;;;;4948871;28;20189;-72
2023/09/16 00:38:00;;;;;;;4.60;4.20;;;22.80;93.30;;;;;;4975042;28;20648;-72
2023/09/16 00:40:26;;;;;;;5.38;4.90;;;22.80;93.30;;;;;;4940740;29;20233;-72
2023/09/16 00:42:52;;;;;;;5.47;5.00;;;22.80;93.30;;;;;;4977672;28;20595;-72
2023/09/16 00:45:18;;;;;;;5.07;4.57;;;22.80;93.50;;;;;;4958202;28;20209;-72
2023/09/16 00:47:44;;;;;;;5.18;4.78;;;22.80;93.30;;;;;;4942258;28;20233;-73
2023/09/16 00:50:12;;;;;;;5.38;4.88;;;22.80;93.30;;;;;;4946747;28;20190;-72
2023/09/16 00:52:43;;;;;;;5.38;4.88;;;22.80;93.40;;;;;;4948470;28;20642;-72
2023/09/16 00:55:09;;;;;;;5.32;4.85;;;22.80;93.40;;;;;;4942349;28;20216;-72
2023/09/16 00:57:40;;;;;;;5.50;5.10;;;22.80;93.40;;;;;;4945159;28;20680;-72
2023/09/16 01:00:08;;;;;;;5.10;4.68;;;22.80;93.40;;;;;;4957402;28;20221;-72
2023/09/16 01:02:37;;;;;;;5.18;4.78;;;22.80;93.40;;;;;;4952929;28;20276;-72
2023/09/16 01:05:14;;;;;;;5.00;4.63;;;22.80;93.40;;;;;;4947621;28;20177;-72
2023/09/16 01:07:41;;;;;;;5.15;4.75;;;22.80;93.40;;;;;;4954001;28;20231;-72
2023/09/16 01:10:11;;;;;;;4.75;4.35;;;22.80;93.40;;;;;;4959431;28;20209;-72
2023/09/16 01:12:38;;;;;;;5.05;4.63;;;22.80;93.40;;;;;;4960652;28;20652;-72
2023/09/16 01:15:06;;;;;;;5.32;4.82;;;22.80;93.40;;;;;;4941999;28;20196;-72
2023/09/16 01:17:47;;;;;;;5.35;4.95;;;22.80;93.40;;;;;;4947346;28;20322;-72
2023/09/16 01:20:15;;;;;;;5.20;4.80;;;22.80;93.40;;;;;;4957828;28;20201;-72
2023/09/16 01:22:45;;;;;;;5.03;4.63;;;22.70;93.40;;;;;;4942099;28;20186;-72
2023/09/16 01:25:15;;;;;;;5.25;4.85;;;22.80;93.40;;;;;;4946782;28;20627;-72
2023/09/16 01:27:42;;;;;;;4.97;4.57;;;22.80;93.40;;;;;;4974954;28;20296;-72
2023/09/16 01:30:09;;;;;;;5.22;4.82;;;22.80;93.40;;;;;;4957719;28;20182;-72
2023/09/16 01:32:44;;;;;;;4.65;4.35;;;22.80;93.40;;;;;;4958027;28;20185;-72
2023/09/16 01:35:15;;;;;;;5.20;4.80;;;22.80;93.40;;;;;;4942818;28;20265;-72
2023/09/16 01:37:45;;;;;;;4.85;4.47;;;22.80;93.40;;;;;;4943839;28;20221;-72
2023/09/16 01:40:12;;;;;;;4.60;4.22;;;22.70;93.30;;;;;;4957369;28;20293;-72
2023/09/16 01:42:41;;;;;;;5.70;5.20;;;22.80;93.40;;;;;;4957370;28;20264;-72
2023/09/16 01:45:10;;;;;;;5.43;4.95;;;22.80;93.40;;;;;;4959688;28;20181;-72
2023/09/16 01:47:35;;;;;;;5.05;4.65;;;22.80;93.40;;;;;;4957658;28;20289;-72
2023/09/16 01:50:02;;;;;;;5.03;4.63;;;22.80;93.40;;;;;;4941606;28;20253;-73
2023/09/16 01:52:28;;;;;;;5.15;4.75;;;22.80;93.40;;;;;;4957451;28;20256;-72
2023/09/16 01:54:53;;;;;;;5.10;4.70;;;22.70;93.40;;;;;;4956724;28;20185;-72
2023/09/16 01:57:19;;;;;;;4.63;4.22;;;22.80;93.40;;;;;;4945785;28;20272;-72
2023/09/16 01:59:45;;;;;;;5.20;4.80;;;22.70;93.30;;;;;;4956925;28;20213;-72
2023/09/16 02:02:11;;;;;;;4.80;4.40;;;22.70;93.30;;;;;;4941367;28;20182;-73
2023/09/16 02:04:38;;;;;;;4.70;4.30;;;22.80;93.40;;;;;;4956784;28;20181;-71
2023/09/16 02:07:06;;;;;;;4.40;4.10;;;22.70;93.30;;;;;;4955041;28;20269;-72
2023/09/16 02:09:32;;;;;;;4.90;4.50;;;22.80;93.40;;;;;;4941261;28;20248;-72
2023/09/16 02:11:57;;;;;;;5.18;4.78;;;22.70;93.30;;;;;;4971813;28;20669;-72
2023/09/16 02:14:24;;;;;;;5.28;4.88;;;22.80;93.30;;;;;;4939570;29;20241;-72
2023/09/16 02:16:50;;;;;;;5.30;4.90;;;22.70;93.30;;;;;;4956381;28;20217;-72
2023/09/16 02:19:16;;;;;;;4.93;4.53;;;22.70;93.30;;;;;;4946932;28;20185;-72
2023/09/16 02:21:42;;;;;;;5.20;4.70;;;22.70;93.30;;;;;;4941056;28;20178;-73
2023/09/16 02:24:08;;;;;;;4.72;4.32;;;22.70;93.30;;;;;;4946964;28;20240;-72
2023/09/16 02:26:34;;;;;;;5.00;4.60;;;22.70;93.20;;;;;;4940553;28;20251;-72
2023/09/16 02:29:00;;;;;;;4.50;4.20;;;22.70;93.20;;;;;;4946687;28;20252;-72
2023/09/16 02:31:28;;;;;;;5.10;4.60;;;22.70;93.20;;;;;;4971675;28;20197;-72
2023/09/16 02:33:57;;;;;;;4.97;4.57;;;22.70;93.30;;;;;;4969601;28;20194;-72
2023/09/16 02:36:23;;;;;;;4.85;4.45;;;22.70;93.30;;;;;;4954594;28;20245;-72
2023/09/16 02:38:51;;;;;;;4.88;4.47;;;22.70;93.30;;;;;;4968483;28;20181;-72
2023/09/16 02:41:18;;;;;;;4.93;4.47;;;22.70;93.30;;;;;;4956437;28;20287;-72
2023/09/16 02:43:46;;;;;;;5.47;4.57;;;22.70;93.30;;;;;;4940443;28;20185;-72
2023/09/16 02:46:13;;;;;;;4.63;4.25;;;22.70;93.30;;;;;;4940090;28;20625;-72
2023/09/16 02:48:39;;;;;;;4.60;4.30;;;22.70;93.30;;;;;;4953176;29;20190;-72
2023/09/16 02:51:09;;;;;;;4.60;4.30;;;22.70;93.20;;;;;;4944796;28;20691;-72
2023/09/16 02:53:36;;;;;;;5.03;4.63;;;22.70;93.60;;;;;;4946587;29;20186;-72
2023/09/16 02:56:03;;;;;;;4.95;4.55;;;22.70;93.30;;;;;;4968164;28;20218;-72
2023/09/16 02:58:29;;;;;;;4.72;4.32;;;22.70;93.20;;;;;;4925887;28;20574;-72
2023/09/16 03:00:55;;;;;;;5.03;4.60;;;22.70;93.30;;;;;;4958228;28;20220;-72
2023/09/16 03:03:21;;;;;;;4.30;4.00;;;22.70;93.20;;;;;;4940197;28;20185;-72
2023/09/16 03:05:47;;;;;;;5.35;4.85;;;22.70;93.20;;;;;;4956498;28;20285;-71
2023/09/16 03:08:15;;;;;;;4.45;4.13;;;22.70;93.20;;;;;;4939635;29;20178;-72
2023/09/16 03:10:41;;;;;;;4.88;4.47;;;22.70;93.20;;;;;;4955943;28;20193;-72
2023/09/16 03:13:09;;;;;;;4.78;4.38;;;22.70;93.20;;;;;;4963524;28;20210;-72
2023/09/16 03:15:42;;;;;;;4.75;4.38;;;22.70;93.20;;;;;;4948911;28;20201;-72
2023/09/16 03:18:07;;;;;;;4.85;4.45;;;22.70;93.20;;;;;;4955631;28;20193;-72
2023/09/16 03:20:33;;;;;;;4.40;4.00;;;22.70;93.20;;;;;;4955608;28;20317;-72
2023/09/16 03:22:59;;;;;;;4.57;4.18;;;22.70;93.20;;;;;;4955359;28;20568;-72
2023/09/16 03:25:25;;;;;;;4.40;4.10;;;22.70;93.20;;;;;;4956360;28;20182;-72
2023/09/16 03:27:51;;;;;;;4.88;4.47;;;22.70;93.20;;;;;;4956431;28;20181;-71
2023/09/16 03:30:17;;;;;;;4.80;4.40;;;22.70;93.20;;;;;;4941936;28;20182;-72
2023/09/16 03:32:45;;;;;;;4.80;4.40;;;22.70;93.20;;;;;;4968424;28;20237;-72
2023/09/16 03:35:11;;;;;;;4.82;4.43;;;22.70;93.20;;;;;;4953994;28;20256;-72
2023/09/16 03:37:36;;;;;;;4.65;4.25;;;22.70;93.20;;;;;;4954204;28;20210;-72
2023/09/16 03:40:05;;;;;;;4.60;4.22;;;22.70;93.20;;;;;;4955086;28;20312;-72
2023/09/16 03:42:32;;;;;;;4.70;4.30;;;22.70;93.10;;;;;;4971450;28;20181;-72
2023/09/16 03:44:58;;;;;;;4.80;4.40;;;22.60;93.00;;;;;;4957525;28;20234;-72
2023/09/16 03:47:26;;;;;;;4.88;4.35;;;22.70;93.10;;;;;;4962150;28;20205;-72
2023/09/16 03:49:52;;;;;;;4.80;4.50;;;22.70;93.10;;;;;;4955644;28;20193;-72
2023/09/16 03:52:18;;;;;;;5.43;4.93;;;22.70;93.10;;;;;;4939634;28;20248;-72
2023/09/16 03:54:44;;;;;;;4.43;4.10;;;22.70;93.10;;;;;;4954535;28;20240;-72
2023/09/16 03:57:11;;;;;;;4.05;3.75;;;22.70;93.10;;;;;;4955457;28;20219;-72
2023/09/16 03:59:37;;;;;;;4.82;4.43;;;22.60;93.00;;;;;;4955174;28;20217;-72
2023/09/16 04:02:03;;;;;;;4.80;4.40;;;22.70;93.10;;;;;;4955267;28;20197;-72
2023/09/16 04:04:29;;;;;;;4.38;4.00;;;22.60;92.90;;;;;;4955130;28;20185;-72
2023/09/16 04:06:55;;;;;;;4.45;4.15;;;22.70;93.00;;;;;;4955042;28;20205;-72
2023/09/16 04:09:20;;;;;;;4.93;4.53;;;22.70;93.00;;;;;;4955298;28;20190;-72
2023/09/16 04:11:46;;;;;;;4.00;3.70;;;22.60;92.90;;;;;;4955243;28;20182;-72
2023/09/16 04:14:12;;;;;;;4.82;4.43;;;22.70;93.00;;;;;;4955141;28;20257;-72
2023/09/16 04:16:39;;;;;;;4.70;4.30;;;22.70;93.00;;;;;;4955367;28;20201;-72
2023/09/16 04:19:05;;;;;;;4.47;4.15;;;22.70;93.00;;;;;;4955120;28;20182;-72
2023/09/16 04:21:30;;;;;;;4.35;3.97;;;22.60;92.90;;;;;;4955129;28;20210;-72
2023/09/16 04:23:57;;;;;;;4.30;3.92;;;22.60;93.00;;;;;;4955936;28;20273;-72
2023/09/16 04:26:24;;;;;;;4.40;4.10;;;22.60;93.00;;;;;;4962087;28;20205;-72
2023/09/16 04:28:49;;;;;;;4.13;3.83;;;22.60;93.00;;;;;;4959303;28;20189;-72
2023/09/16 04:31:15;;;;;;;4.03;3.72;;;22.70;93.30;;;;;;4954756;28;20277;-72
2023/09/16 04:33:41;;;;;;;4.40;4.03;;;22.60;92.90;;;;;;4939535;28;20182;-72
2023/09/16 04:36:08;;;;;;;4.90;4.50;;;22.60;93.00;;;;;;4971735;28;20219;-72
2023/09/16 04:38:34;;;;;;;4.30;4.00;;;22.60;92.90;;;;;;4972199;28;20289;-72
2023/09/16 04:41:00;;;;;;;4.47;4.18;;;22.60;92.90;;;;;;4942771;28;20213;-74
2023/09/16 04:43:26;;;;;;;4.70;4.30;;;22.60;92.90;;;;;;4958481;28;20201;-72
2023/09/16 04:45:52;;;;;;;4.53;4.13;;;22.60;92.90;;;;;;4942426;28;20208;-72
2023/09/16 04:48:34;;;;;;;4.60;4.20;;;22.60;92.90;;;;;;4939038;28;20186;-72
2023/09/16 04:51:03;;;;;;;4.70;4.30;;;22.60;92.90;;;;;;4951793;28;20181;-72
2023/09/16 04:53:31;;;;;;;4.40;4.05;;;22.60;92.90;;;;;;4965044;28;20186;-72
2023/09/16 04:56:09;;;;;;;4.22;3.92;;;22.60;92.90;;;;;;4992931;28;20216;-72
2023/09/16 04:58:38;;;;;;;4.30;4.00;;;22.60;92.90;;;;;;4950654;28;20236;-72
2023/09/16 05:01:07;;;;;;;4.40;4.10;;;22.60;92.80;;;;;;4949895;28;20276;-72
2023/09/16 05:03:33;;;;;;;4.70;4.30;;;22.60;92.80;;;;;;4948873;29;20206;-72
2023/09/16 05:05:59;;;;;;;3.97;3.63;;;22.60;92.80;;;;;;4972396;28;20265;-71
2023/09/16 05:08:28;;;;;;;4.38;4.07;;;22.60;92.80;;;;;;4958434;28;20185;-72
2023/09/16 05:10:55;;;;;;;4.40;4.00;;;22.60;92.90;;;;;;4958315;28;20276;-72
2023/09/16 05:13:22;;;;;;;4.22;3.92;;;22.60;92.80;;;;;;4958126;28;20189;-72
2023/09/16 05:15:52;;;;;;;4.40;4.05;;;22.60;92.90;;;;;;4957769;28;20780;-72
2023/09/16 05:18:18;;;;;;;4.45;4.15;;;22.60;92.80;;;;;;4957805;28;20186;-71
2023/09/16 05:20:45;;;;;;;3.88;3.58;;;22.60;92.80;;;;;;4956320;28;20545;-72
2023/09/16 05:23:13;;;;;;;3.85;3.55;;;22.60;92.80;;;;;;4956443;28;20186;-72
2023/09/16 05:25:47;;;;;;;4.55;4.20;;;22.60;92.70;;;;;;4955040;28;20191;-71
2023/09/16 05:28:17;;;;;;;4.35;4.00;;;22.60;92.70;;;;;;4939204;28;20189;-72
2023/09/16 05:30:44;;;;;;;4.32;4.03;;;22.50;92.70;;;;;;4949078;29;20183;-72
2023/09/16 05:33:11;;;;;;;3.92;3.63;;;22.60;92.80;;;;;;4972599;28;20628;-72
2023/09/16 05:35:39;;;;;;;4.22;3.88;;;22.60;92.70;;;;;;4986676;28;20671;-72
2023/09/16 05:38:05;;;;;;;4.15;3.85;;;22.50;92.70;;;;;;4941936;28;20179;-72
2023/09/16 05:40:32;;;;;;;3.97;3.67;;;22.50;92.60;;;;;;4961835;28;20770;-72
2023/09/16 05:42:58;;;;;;;4.25;3.92;;;22.50;92.60;;;;;;4960021;28;20181;-72
2023/09/16 05:45:25;;;;;;;3.80;3.50;;;22.60;92.60;;;;;;4961559;28;20218;-72
2023/09/16 05:47:52;;;;;;;3.53;3.33;;;22.50;92.60;;;;;;4953858;28;20193;-72
2023/09/16 05:50:18;;;;;;;3.88;3.58;;;22.60;92.70;;;;;;4957179;28;20186;-72
2023/09/16 05:52:44;;;;;;;3.97;3.67;;;22.50;92.60;;;;;;4941362;28;20248;-72
2023/09/16 05:55:10;;;;;;;3.95;3.65;;;22.60;92.70;;;;;;4963426;28;20713;-72
2023/09/16 05:57:36;;;;;;;3.80;3.50;;;22.60;92.70;;;;;;4946574;29;20238;-72
2023/09/16 06:00:03;;;;;;;4.00;3.70;;;22.50;92.60;;;;;;4957242;28;20208;-72
2023/09/16 06:02:39;;;;;;;3.67;3.38;;;22.50;92.60;;;;;;4958544;28;20193;-72
2023/09/16 06:05:08;;;;;;;3.67;3.40;;;22.60;92.70;;;;;;4954917;28;20184;-72
2023/09/16 06:07:39;;;;;;;3.80;3.50;;;22.50;92.60;;;;;;4952179;28;20201;-72
2023/09/16 06:10:06;;;;;;;3.70;3.40;;;22.50;92.60;;;;;;4982984;28;20200;-72
2023/09/16 06:12:33;;;;;;;3.13;2.92;;;22.50;92.60;;;;;;4945431;29;20182;-72
2023/09/16 06:14:59;;;;;;;3.92;3.63;;;22.50;92.60;;;;;;4955370;28;20185;-72
2023/09/16 06:17:25;;;;;;;3.70;3.40;;;22.50;92.60;;;;;;4954398;28;20305;-72
2023/09/16 06:19:54;;;;;;;4.22;3.92;;;22.50;92.60;;;;;;4956718;28;20202;-72
2023/09/16 06:22:24;;;;;;;4.05;3.75;;;22.50;92.70;;;;;;4955942;28;20182;-72
2023/09/16 06:24:51;;;;;;;3.72;3.42;;;22.50;92.60;;;;;;4956570;28;20186;-72
2023/09/16 06:27:20;;;;;;;3.83;3.53;;;22.50;92.70;;;;;;4948980;28;20209;-72
2023/09/16 06:29:46;;;;;;;4.15;3.75;;;22.50;92.70;;;;;;4956519;28;20209;-72
2023/09/16 06:32:14;;;;;;;3.80;3.50;;;22.50;92.70;;;;;;4963073;28;20667;-72
2023/09/16 06:34:39;;;;;;;4.13;3.83;;;22.50;92.70;;;;;;4956205;28;20185;-72
2023/09/16 06:37:05;;;;;;;4.20;3.90;;;22.50;92.80;;;;;;4956491;28;20221;-71
2023/09/16 06:39:32;;;;;;;3.97;3.67;;;22.50;92.80;;;;;;4942189;28;20186;-71
2023/09/16 06:41:59;;;;;;;3.80;3.50;;;22.50;92.80;;;;;;4956226;28;20196;-73
2023/09/16 06:44:31;;;;;;;4.28;3.88;;;22.50;92.80;;;;;;4931419;28;20683;-72
2023/09/16 06:46:57;;;;;;;4.13;3.83;;;22.60;92.80;;;;;;4940171;28;20209;-72
2023/09/16 06:49:23;;;;;;;4.15;3.83;;;22.60;92.80;;;;;;4946559;28;20188;-72
2023/09/16 06:51:49;;;;;;;3.78;3.47;;;22.60;92.80;;;;;;4940073;28;20210;-73
2023/09/16 06:54:15;;;;;;;4.10;3.80;;;22.50;92.80;;;;;;4950070;28;20193;-72
2023/09/16 06:56:40;;;;;;;3.90;3.60;;;22.60;92.80;;;;;;4961090;28;20264;-72
2023/09/16 06:59:06;;;;;;;4.00;3.70;;;22.60;92.90;;;;;;4955303;28;20181;-72
2023/09/16 07:01:32;;;;;;;3.97;3.67;;;22.60;92.90;;;;;;4973095;28;20206;-71
2023/09/16 07:03:58;;;;;;;3.88;3.58;;;22.60;92.90;;;;;;4956091;28;20193;-72
2023/09/16 07:06:24;;;;;;;4.15;3.85;;;22.60;92.90;;;;;;4954218;28;20216;-72
2023/09/16 07:08:49;;;;;;;4.22;3.92;;;22.60;92.90;;;;;;4955583;28;20189;-72
2023/09/16 07:11:17;;;;;;;3.85;3.55;;;22.60;92.90;;;;;;4939285;28;20205;-72
2023/09/16 07:13:44;;;;;;;3.90;3.60;;;22.60;92.90;;;;;;4945973;28;20697;-72
2023/09/16 07:16:13;;;;;;;3.80;3.50;;;22.60;92.90;;;;;;4955095;28;20205;-72
2023/09/16 07:18:39;;;;;;;4.05;3.75;;;22.60;92.90;;;;;;4954736;28;20306;-72
2023/09/16 07:21:06;;;;;;;4.15;3.85;;;22.60;93.00;;;;;;4937834;28;20206;-72
2023/09/16 07:23:32;;;;;;;4.05;3.75;;;22.60;93.00;;;;;;4975737;28;20676;-72
2023/09/16 07:25:59;;;;;;;3.90;3.60;;;22.60;93.00;;;;;;4939317;28;20217;-72
2023/09/16 07:28:27;;;;;;;4.13;3.83;;;22.60;93.00;;;;;;4942139;28;20181;-72
2023/09/16 07:30:53;;;;;;;4.32;4.03;;;22.60;93.10;;;;;;4952938;28;20190;-72
2023/09/16 07:33:19;;;;;;;4.60;4.20;;;22.60;93.10;;;;;;4950203;28;20218;-72
2023/09/16 07:35:45;;;;;;;4.50;4.18;;;22.60;93.20;;;;;;4969644;28;20240;-72
2023/09/16 07:38:11;;;;;;;4.82;4.43;;;22.70;93.20;;;;;;4947032;28;20200;-72
2023/09/16 07:40:38;;;;;;;5.13;4.72;;;22.70;93.30;;;;;;4955582;28;20213;-72
2023/09/16 07:43:08;;;;;;;5.50;5.00;;;22.70;93.40;;;;;;4953681;28;20612;-72
2023/09/16 07:45:35;;;;;;;6.00;5.50;;;22.70;93.40;;;;;;4947619;28;20177;-70
2023/09/16 07:48:01;;;;;;;5.15;4.75;;;22.70;93.30;;;;;;4955557;28;20178;-72
2023/09/16 07:50:26;;;;;;;4.97;4.57;;;22.70;93.30;;;;;;4950791;28;20240;-72
2023/09/16 07:52:52;;;;;;;5.68;5.18;;;22.70;93.30;;;;;;4955411;28;20194;-72
2023/09/16 07:55:18;;;;;;;5.15;4.75;;;22.80;93.40;;;;;;4949225;28;20251;-72
2023/09/16 07:57:44;;;;;;;5.50;5.10;;;22.70;93.20;;;;;;4958386;28;20215;-72
2023/09/16 08:00:10;;;;;;;5.18;4.78;;;22.80;93.20;;;;;;4939226;28;20272;-72
2023/09/16 08:02:39;;;;;;;5.28;4.88;;;22.80;93.30;;;;;;4937351;28;20193;-72
2023/09/16 08:05:05;;;;;;;4.82;4.43;;;22.80;93.20;;;;;;4936422;28;20194;-72
2023/09/16 08:07:30;;;;;;;5.63;5.13;;;22.80;93.30;;;;;;4934101;28;20213;-72
2023/09/16 08:09:56;;;;;;;5.85;4.68;;;22.90;93.30;;;;;;4975238;28;20193;-72
2023/09/16 08:12:23;;;;;;;5.07;4.68;;;22.90;93.40;;;;;;4953802;28;20200;-72
2023/09/16 08:14:49;;;;;;;4.70;4.38;;;22.90;93.30;;;;;;4959086;28;20221;-72
2023/09/16 08:17:16;;;;;;;4.93;4.53;;;22.90;93.30;;;;;;4958854;28;20221;-72
2023/09/16 08:19:41;;;;;;;5.13;4.72;;;22.90;93.30;;;;;;4962719;28;20196;-72
2023/09/16 08:22:07;;;;;;;4.53;4.22;;;22.90;93.30;;;;;;4962753;28;20177;-72
2023/09/16 08:24:34;;;;;;;5.03;4.63;;;22.90;93.40;;;;;;4975649;28;20645;-72
2023/09/16 08:27:01;;;;;;;4.93;4.63;;;22.90;93.40;;;;;;4958468;28;20261;-73
2023/09/16 08:29:27;;;;;;;4.45;4.15;;;22.90;93.40;;;;;;4943127;28;20192;-73
2023/09/16 08:31:53;;;;;;;4.93;4.53;;;22.90;93.40;;;;;;4955915;28;20228;-72
2023/09/16 08:34:18;;;;;;;4.85;4.43;;;22.90;93.50;;;;;;4950886;28;20217;-72
2023/09/16 08:36:44;;;;;;;4.55;4.15;;;22.90;93.50;;;;;;4958910;28;20215;-72
2023/09/16 08:39:10;;;;;;;5.05;4.65;;;22.90;93.50;;;;;;4958545;28;20277;-72
2023/09/16 08:42:00;;;;;;;4.47;4.18;;;22.90;93.50;;;;;;4958910;28;20217;-72
2023/09/16 08:44:29;;;;;;;4.95;4.55;;;22.90;93.50;;;;;;4956536;28;20189;-71
2023/09/16 08:47:04;;;;;;;4.78;4.47;;;22.90;93.50;;;;;;4958425;28;20205;-72
2023/09/16 08:49:34;;;;;;;4.40;4.10;;;22.90;93.50;;;;;;4958558;28;20191;-73
2023/09/16 08:52:02;;;;;;;4.00;3.70;;;22.90;93.50;;;;;;4942604;28;20258;-72
2023/09/16 08:54:32;;;;;;;4.38;4.07;;;22.90;93.50;;;;;;4959584;28;20209;-72
2023/09/16 08:57:00;;;;;;;4.20;3.90;;;22.90;93.50;;;;;;4961011;28;20209;-73
2023/09/16 08:59:28;;;;;;;4.03;3.63;;;22.90;93.60;;;;;;4945094;28;20228;-73
2023/09/16 09:01:53;;;;;;;4.00;3.70;;;22.90;93.60;;;;;;4942378;28;20217;-72
2023/09/16 09:04:19;;;;;;;4.65;4.28;;;22.90;93.60;;;;;;4955169;28;20236;-72
2023/09/16 09:06:46;;;;;;;4.22;3.92;;;22.90;93.70;;;;;;4957843;28;20300;-72
2023/09/16 09:09:12;;;;;;;3.83;3.58;;;22.90;93.80;;;;;;4951383;28;20192;-72
2023/09/16 09:11:39;;;;;;;4.25;3.95;;;22.90;93.70;;;;;;4942018;28;20229;-72
2023/09/16 09:14:09;;;;;;;4.25;3.95;;;22.90;93.70;;;;;;4975279;28;20637;-72
2023/09/16 09:16:38;;;;;;;4.15;3.85;;;22.90;93.70;;;;;;4943100;28;20593;-72
2023/09/16 09:19:05;;;;;;;4.30;4.00;;;22.90;93.70;;;;;;4947774;28;20245;-71
2023/09/16 09:21:32;;;;;;;4.68;4.28;;;22.90;93.70;;;;;;4959897;28;20223;-72
2023/09/16 09:23:58;;;;;;;4.07;3.78;;;22.90;93.80;;;;;;4956459;28;20190;-72
2023/09/16 09:26:24;;;;;;;4.20;3.90;;;22.90;93.80;;;;;;4962319;28;20213;-72
2023/09/16 09:28:51;;;;;;;4.57;4.18;;;22.90;94.00;;;;;;4961628;28;20181;-72
2023/09/16 09:31:16;;;;;;;4.38;4.00;;;22.90;94.00;;;;;;4941577;28;20193;-73
2023/09/16 09:33:44;;;;;;;3.92;3.63;;;22.90;93.90;;;;;;4938851;28;20191;-72
2023/09/16 09:36:16;;;;;;;4.10;3.80;;;22.90;94.00;;;;;;4961169;28;20218;-72
2023/09/16 09:38:45;;;;;;;4.50;4.20;;;22.90;94.00;;;;;;4943427;28;20206;-71
2023/09/16 09:41:13;;;;;;;4.28;3.97;;;22.90;94.00;;;;;;4945431;28;20210;-72
2023/09/16 09:43:39;;;;;;;4.15;3.85;;;22.90;94.00;;;;;;4963814;28;20249;-72
2023/09/16 09:46:06;;;;;;;3.95;3.70;;;22.90;94.00;;;;;;4974905;28;20241;-72
2023/09/16 09:48:35;;;;;;;3.90;3.60;;;22.90;94.00;;;;;;4957392;28;20192;-72
2023/09/16 09:51:01;;;;;;;4.05;3.75;;;22.90;94.00;;;;;;4941668;28;20189;-72
2023/09/16 09:53:28;;;;;;;4.43;4.03;;;22.90;94.00;;;;;;4941680;28;20197;-71
2023/09/16 09:55:54;;;;;;;3.70;3.47;;;22.90;94.00;;;;;;4957176;28;20244;-72
2023/09/16 09:58:21;;;;;;;3.80;3.50;;;22.90;94.00;;;;;;4958100;28;20276;-72
2023/09/16 10:00:51;;;;;;;3.75;3.45;;;22.90;94.00;;;;;;4957233;28;20221;-72
2023/09/16 10:03:21;;;;;;;4.07;3.78;;;22.90;94.00;;;;;;4957602;28;20190;-74
2023/09/16 10:05:46;;;;;;;3.70;3.45;;;22.90;94.00;;;;;;4948771;28;20575;-72
2023/09/16 10:08:13;;;;;;;3.97;3.55;;;23.00;94.10;;;;;;4957157;28;20196;-72
2023/09/16 10:10:40;;;;;;;4.10;3.80;;;23.00;94.10;;;;;;4952853;28;20221;-72
2023/09/16 10:13:08;;;;;;;4.38;3.78;;;22.90;94.00;;;;;;4974199;28;20194;-72
2023/09/16 10:15:37;;;;;;;4.13;3.83;;;22.90;94.00;;;;;;4956528;28;20281;-73
2023/09/16 10:18:04;;;;;;;3.50;3.30;;;22.90;94.20;;;;;;4957093;28;20272;-73
2023/09/16 10:20:36;;;;;;;3.45;3.25;;;22.90;94.00;;;;;;4939590;28;20232;-71
2023/09/16 10:23:02;;;;;;;4.07;3.78;;;22.90;94.00;;;;;;4956743;28;20256;-72
2023/09/16 10:25:29;;;;;;;4.13;3.83;;;22.90;94.00;;;;;;4956582;28;20189;-73
2023/09/16 10:28:04;;;;;;;3.88;3.58;;;23.00;93.90;;;;;;4957018;28;20229;-73
2023/09/16 10:30:33;;;;;;;3.95;3.67;;;23.00;94.00;;;;;;4948005;28;20203;-73
2023/09/16 10:33:02;;;;;;;3.83;3.53;;;23.00;94.00;;;;;;4956155;28;20217;-73
2023/09/16 10:35:29;;;;;;;3.60;3.40;;;23.00;94.00;;;;;;4960750;28;20248;-73
2023/09/16 10:38:02;;;;;;;3.67;3.38;;;23.00;94.00;;;;;;4940500;28;20193;-73
2023/09/16 10:40:29;;;;;;;3.83;3.53;;;23.00;93.90;;;;;;4956027;28;20217;-72
2023/09/16 10:42:57;;;;;;;3.58;3.38;;;23.00;93.90;;;;;;4940709;28;20245;-73
2023/09/16 10:45:26;;;;;;;3.67;3.38;;;23.00;93.90;;;;;;4940413;29;20183;-73
2023/09/16 10:47:53;;;;;;;4.25;3.95;;;23.00;93.90;;;;;;4973622;28;20224;-72
2023/09/16 10:50:25;;;;;;;3.70;3.50;;;23.00;93.90;;;;;;4941889;28;20213;-72
2023/09/16 10:53:14;;;;;;;3.88;3.58;;;23.00;93.80;;;;;;4959503;28;20193;-73
2023/09/16 10:56:02;;;;;;;4.20;3.38;;;23.00;93.80;;;;;;4935067;28;20288;-73
2023/09/16 10:58:47;;;;;;;3.63;3.42;;;23.00;93.80;;;;;;4936775;29;20191;-73
2023/09/16 11:01:25;;;;;;;3.63;3.33;;;23.00;94.10;;;;;;4942181;28;20242;-73
2023/09/16 11:03:57;;;;;;;3.78;3.47;;;23.00;93.80;;;;;;4955444;28;20240;-72
2023/09/16 11:06:23;;;;;;;3.72;3.42;;;23.00;93.80;;;;;;4951428;28;20224;-73
2023/09/16 11:08:49;;;;;;;3.30;3.10;;;23.00;93.80;;;;;;4947395;28;20183;-73
2023/09/16 11:11:16;;;;;;;3.45;3.25;;;23.00;93.80;;;;;;4942819;28;20424;-72
2023/09/16 11:13:42;;;;;;;3.78;3.47;;;23.00;93.80;;;;;;4975858;28;20280;-73
2023/09/16 11:16:11;;;;;;;3.95;3.65;;;23.00;93.80;;;;;;4940588;28;20214;-73
2023/09/16 11:18:42;;;;;;;3.88;3.50;;;23.00;93.70;;;;;;4958237;28;20329;-73
2023/09/16 11:21:08;;;;;;;4.15;3.75;;;23.00;93.70;;;;;;4945010;28;20211;-73
2023/09/16 11:23:36;;;;;;;3.65;3.45;;;23.10;93.70;;;;;;4942535;28;20661;-73
2023/09/16 11:26:04;;;;;;;3.85;3.55;;;23.00;93.70;;;;;;4961501;28;20271;-73
2023/09/16 11:28:30;;;;;;;3.95;3.55;;;23.00;93.60;;;;;;4939954;28;20203;-73
2023/09/16 11:31:00;;;;;;;3.53;3.20;;;23.00;93.60;;;;;;4939564;28;20189;-73
2023/09/16 11:33:37;;;;;;;3.58;3.38;;;23.00;93.50;;;;;;4973037;28;20547;-73
2023/09/16 11:36:18;;;;;;;3.50;3.20;;;23.10;93.60;;;;;;4953657;28;20209;-73
2023/09/16 11:39:15;;;;;;;3.40;3.20;;;23.10;93.70;;;;;;4947348;28;20193;-73
2023/09/16 11:41:42;;;;;;;3.10;2.90;;;23.10;93.60;;;;;;4939786;28;20220;-73
2023/09/16 11:44:08;;;;;;;3.50;3.30;;;23.10;94.00;;;;;;4974860;28;20186;-73
2023/09/16 11:46:35;;;;;;;3.40;3.20;;;23.00;93.60;;;;;;4951005;28;20197;-73
2023/09/16 11:49:05;;;;;;;3.35;3.15;;;23.10;93.70;;;;;;4961826;28;20204;-73
2023/09/16 11:51:33;;;;;;;3.80;3.50;;;23.10;93.70;;;;;;4964560;28;20190;-73
2023/09/16 11:54:00;;;;;;;3.60;3.40;;;23.10;93.60;;;;;;4962008;28;20197;-73
2023/09/16 11:56:29;;;;;;;3.85;3.55;;;23.10;93.60;;;;;;4961708;28;20231;-73
2023/09/16 11:58:57;;;;;;;3.65;3.42;;;23.10;93.50;;;;;;4962282;28;20212;-73
2023/09/16 12:01:29;;;;;;;3.33;3.03;;;23.00;93.60;;;;;;4946192;28;20638;-73
2023/09/16 12:03:59;;;;;;;3.30;3.08;;;23.10;93.70;;;;;;4961996;28;20247;-73
2023/09/16 12:06:26;;;;;;;3.22;2.95;;;23.10;93.70;;;;;;4950474;28;20197;-72
2023/09/16 12:08:58;;;;;;;3.35;3.15;;;23.10;93.70;;;;;;4961805;28;20202;-73
2023/09/16 12:11:26;;;;;;;3.40;3.10;;;23.10;93.70;;;;;;4956921;28;20196;-70
2023/09/16 12:13:54;;;;;;;3.20;3.00;;;23.10;93.60;;;;;;4945766;28;20193;-72
2023/09/16 12:16:21;;;;;;;3.28;2.97;;;23.10;93.70;;;;;;4956127;28;20213;-72
2023/09/16 12:18:47;;;;;;;3.53;3.28;;;23.10;93.70;;;;;;4979032;28;20196;-72
2023/09/16 12:21:13;;;;;;;3.28;3.03;;;23.10;93.60;;;;;;4961593;28;20205;-73
2023/09/16 12:23:42;;;;;;;3.70;3.40;;;23.10;93.50;;;;;;4978761;28;20173;-73
2023/09/16 12:26:10;;;;;;;3.45;3.15;;;23.10;93.50;;;;;;4945312;28;20348;-71
2023/09/16 12:28:38;;;;;;;3.10;2.90;;;23.10;93.70;;;;;;4961699;28;20632;-72
2023/09/16 12:31:10;;;;;;;3.58;3.28;;;23.10;93.60;;;;;;4976840;28;20193;-73
2023/09/16 12:33:44;;;;;;;3.13;2.92;;;23.10;93.60;;;;;;4961738;28;20190;-72
2023/09/16 12:36:16;;;;;;;3.55;3.25;;;23.10;93.70;;;;;;4955156;28;20223;-74
2023/09/16 12:38:43;;;;;;;3.08;2.88;;;23.10;93.70;;;;;;4961920;28;20193;-75
2023/09/16 12:41:12;;;;;;;3.38;3.17;;;23.10;93.70;;;;;;4978741;28;20213;-72
2023/09/16 12:43:39;;;;;;;3.33;3.13;;;23.10;93.70;;;;;;4958568;28;20221;-72
2023/09/16 12:46:06;;;;;;;3.25;3.05;;;23.10;93.70;;;;;;4961116;28;20279;-72
2023/09/16 12:48:34;;;;;;;3.50;3.30;;;23.10;93.70;;;;;;4957234;28;20185;-70
2023/09/16 12:51:01;;;;;;;3.65;3.13;;;23.10;93.70;;;;;;4961569;28;20244;-71